createdAt,value
2023-04-01T00:00:34.864Z,85.88
2023-04-01T00:03:03.181Z,86.22
2023-04-01T00:05:31.557Z,85.89
2023-04-01T00:07:59.346Z,86.00
2023-04-01T00:10:27.027Z,86.12
2023-04-01T00:12:56.021Z,86.08
2023-04-01T00:15:23.852Z,84.74
2023-04-01T00:17:51.481Z,84.72
2023-04-01T00:20:19.491Z,84.26
2023-04-01T00:22:47.035Z,83.97
2023-04-01T00:25:14.977Z,84.40
2023-04-01T00:27:42.727Z,84.88
2023-04-01T00:30:12.662Z,84.26
2023-04-01T00:32:40.320Z,84.01
2023-04-01T00:35:08.696Z,84.53
2023-04-01T00:37:37.703Z,83.78
2023-04-01T00:40:07.434Z,84.52
2023-04-01T00:42:35.258Z,84.91
2023-04-01T00:45:28.464Z,86.28
2023-04-01T00:47:56.771Z,86.85
2023-04-01T00:50:26.967Z,85.71
2023-04-01T00:52:55.375Z,86.13
2023-04-01T00:55:25.386Z,85.29
2023-04-01T00:57:57.889Z,85.96
2023-04-01T01:00:27.775Z,85.26
2023-04-01T01:02:55.541Z,85.26
2023-04-01T01:05:42.570Z,85.58
2023-04-01T01:08:22.977Z,84.67
2023-04-01T01:10:52.086Z,84.70
2023-04-01T01:13:24.776Z,84.95
2023-04-01T01:15:59.723Z,84.49
2023-04-01T01:18:36.896Z,84.39
2023-04-01T01:21:46.503Z,83.87
2023-04-01T01:24:54.521Z,84.78
2023-04-01T01:27:23.917Z,84.18
2023-04-01T01:30:23.936Z,84.07
2023-04-01T01:33:13.856Z,84.20
2023-04-01T01:35:47.786Z,84.21
2023-04-01T01:38:23.102Z,84.11
2023-04-01T01:41:02.567Z,84.45
2023-04-01T01:43:34.536Z,84.17
2023-04-01T01:46:06.642Z,83.52
2023-04-01T01:48:36.142Z,84.06
2023-04-01T01:51:06.934Z,84.52
2023-04-01T01:53:34.701Z,84.83
2023-04-01T01:56:02.743Z,84.30
2023-04-01T01:58:41.271Z,84.99
2023-04-01T02:01:14.390Z,84.40
2023-04-01T02:03:44.132Z,83.77
2023-04-01T02:06:18.800Z,83.80
2023-04-01T02:08:49.131Z,83.95
2023-04-01T02:11:20.051Z,84.13
2023-04-01T02:13:55.564Z,84.46
2023-04-01T02:16:30.708Z,84.68
2023-04-01T02:19:00.454Z,84.03
2023-04-01T02:21:33.498Z,83.94
2023-04-01T02:24:04.006Z,84.37
2023-04-01T02:26:32.194Z,84.70
2023-04-01T02:29:01.713Z,84.53
2023-04-01T02:31:30.412Z,85.14
2023-04-01T02:33:58.535Z,84.41
2023-04-01T02:36:26.537Z,83.77
2023-04-01T02:39:00.136Z,83.95
2023-04-01T02:41:27.971Z,84.06
2023-04-01T02:43:55.932Z,83.79
2023-04-01T02:46:23.899Z,84.39
2023-04-01T02:48:51.503Z,83.94
2023-04-01T02:51:19.245Z,84.50
2023-04-01T02:53:46.829Z,84.20
2023-04-01T02:56:16.096Z,85.10
2023-04-01T02:58:43.829Z,84.71
2023-04-01T03:01:11.709Z,85.08
2023-04-01T03:03:39.560Z,85.14
2023-04-01T03:06:08.290Z,85.15
2023-04-01T03:08:35.998Z,85.08
2023-04-01T03:11:03.860Z,85.29
2023-04-01T03:13:35.510Z,85.34
2023-04-01T03:16:03.672Z,85.87
2023-04-01T03:18:31.636Z,85.46
2023-04-01T03:20:59.276Z,85.59
2023-04-01T03:23:27.063Z,85.71
2023-04-01T03:25:54.728Z,86.26
2023-04-01T03:28:22.417Z,85.77
2023-04-01T03:30:51.446Z,85.21
2023-04-01T03:33:19.216Z,85.67
2023-04-01T03:35:46.810Z,85.95
2023-04-01T03:38:14.554Z,86.67
2023-04-01T03:40:44.335Z,87.23
2023-04-01T03:43:13.747Z,87.56
2023-04-01T03:45:46.261Z,87.69
2023-04-01T03:48:16.588Z,87.10
2023-04-01T03:50:44.602Z,87.24
2023-04-01T03:53:13.326Z,87.42
2023-04-01T03:55:44.021Z,87.81
2023-04-01T03:58:11.962Z,87.53
2023-04-01T04:00:39.604Z,87.43
2023-04-01T04:03:08.465Z,87.34
2023-04-01T04:05:38.419Z,87.28
2023-04-01T04:08:06.514Z,87.82
2023-04-01T04:10:36.093Z,87.45
2023-04-01T04:13:03.949Z,86.87
2023-04-01T04:15:34.593Z,87.40
2023-04-01T04:18:02.596Z,87.58
2023-04-01T04:20:30.329Z,86.57
2023-04-01T04:22:59.612Z,87.34
2023-04-01T04:25:27.229Z,87.02
2023-04-01T04:27:54.968Z,87.02
2023-04-01T04:30:22.720Z,85.96
2023-04-01T04:32:50.639Z,86.19
2023-04-01T04:35:18.259Z,85.72
2023-04-01T04:37:46.801Z,85.74
2023-04-01T04:40:16.559Z,85.51
2023-04-01T04:42:44.169Z,85.47
2023-04-01T04:45:15.400Z,84.25
2023-04-01T04:47:51.871Z,84.19
2023-04-01T04:50:19.748Z,84.04
2023-04-01T04:52:47.472Z,84.19
2023-04-01T04:55:16.864Z,83.99
2023-04-01T04:57:48.360Z,84.10
2023-04-01T05:00:16.367Z,84.27
2023-04-01T05:03:02.216Z,83.75
2023-04-01T05:05:30.110Z,83.96
2023-04-01T05:07:58.584Z,83.66
2023-04-01T05:10:27.836Z,83.52
2023-04-01T05:12:55.653Z,83.71
2023-04-01T05:15:24.750Z,83.89
2023-04-01T05:17:52.533Z,84.05
2023-04-01T05:20:20.372Z,83.33
2023-04-01T05:22:48.005Z,83.58
2023-04-01T05:25:16.006Z,83.62
2023-04-01T05:27:44.942Z,83.42
2023-04-01T05:30:13.628Z,83.18
2023-04-01T05:32:46.693Z,82.84
2023-04-01T05:35:14.421Z,83.63
2023-04-01T05:37:42.006Z,83.25
2023-04-01T05:40:11.186Z,82.93
2023-04-01T05:42:38.954Z,83.22
2023-04-01T05:45:09.980Z,83.05
2023-04-01T05:47:52.813Z,82.59
2023-04-01T05:50:21.527Z,82.61
2023-04-01T05:52:49.124Z,82.25
2023-04-01T05:55:17.329Z,82.36
2023-04-01T05:57:46.844Z,81.69
2023-04-01T06:00:17.172Z,81.88
2023-04-01T06:02:45.114Z,82.39
2023-04-01T06:05:18.308Z,81.14
2023-04-01T06:07:45.912Z,80.25
2023-04-01T06:10:18.752Z,81.02
2023-04-01T06:12:58.664Z,80.88
2023-04-01T06:15:36.942Z,80.03
2023-04-01T06:18:39.334Z,79.86
2023-04-01T06:21:21.690Z,79.63
2023-04-01T06:24:15.176Z,80.03
2023-04-01T06:26:52.116Z,79.98
2023-04-01T06:29:37.690Z,81.22
2023-04-01T06:32:25.922Z,80.04
2023-04-01T06:35:16.853Z,79.92
2023-04-01T06:38:06.680Z,79.90
2023-04-01T06:40:59.098Z,78.98
2023-04-01T06:43:42.625Z,80.30
2023-04-01T06:46:26.745Z,78.72
2023-04-01T06:49:36.544Z,79.51
2023-04-01T06:52:52.111Z,80.01
2023-04-01T06:55:50.096Z,79.76
2023-04-01T06:58:33.242Z,79.52
2023-04-01T07:01:05.722Z,78.85
2023-04-01T07:03:37.953Z,78.19
2023-04-01T07:06:14.609Z,79.25
2023-04-01T07:08:53.373Z,79.07
2023-04-01T07:11:28.864Z,77.22
2023-04-01T07:14:21.755Z,77.27
2023-04-01T07:16:53.935Z,78.07
2023-04-01T07:19:27.729Z,79.02
2023-04-01T07:22:26.137Z,76.35
2023-04-01T07:25:13.204Z,79.21
2023-04-01T07:27:40.898Z,77.38
2023-04-01T07:30:16.603Z,77.80
2023-04-01T07:32:48.297Z,77.92
2023-04-01T07:35:25.635Z,76.98
2023-04-01T07:38:17.158Z,76.38
2023-04-01T07:40:51.224Z,76.68
2023-04-01T07:43:39.124Z,76.01
2023-04-01T07:46:45.822Z,75.23
2023-04-01T07:49:19.343Z,75.30
2023-04-01T07:51:59.682Z,76.12
2023-04-01T07:54:40.413Z,74.86
2023-04-01T07:57:14.108Z,75.72
2023-04-01T07:59:58.835Z,75.33
2023-04-01T08:02:53.722Z,77.89
2023-04-01T08:05:29.187Z,75.02
2023-04-01T08:08:09.716Z,75.91
2023-04-01T08:11:17.453Z,74.15
2023-04-01T08:14:10.571Z,75.38
2023-04-01T08:17:04.753Z,74.90
2023-04-01T08:19:56.871Z,72.70
2023-04-01T08:22:31.312Z,73.24
2023-04-01T08:25:08.585Z,75.18
2023-04-01T08:27:41.377Z,73.36
2023-04-01T08:30:20.941Z,74.09
2023-04-01T08:32:55.600Z,72.53
2023-04-01T08:35:32.411Z,72.49
2023-04-01T08:38:11.257Z,71.56
2023-04-01T08:40:59.677Z,72.79
2023-04-01T08:44:10.931Z,72.14
2023-04-01T08:47:21.931Z,71.62
2023-04-01T08:50:14.595Z,70.21
2023-04-01T08:53:05.638Z,70.98
2023-04-01T08:55:45.929Z,72.09
2023-04-01T08:58:49.223Z,71.47
2023-04-01T09:02:07.056Z,73.77
2023-04-01T09:05:14.961Z,72.55
2023-04-01T09:07:54.133Z,72.73
2023-04-01T09:10:53.087Z,72.39
2023-04-01T09:14:10.752Z,70.99
2023-04-01T09:17:11.541Z,71.76
2023-04-01T09:20:01.658Z,73.24
2023-04-01T09:23:02.455Z,73.35
2023-04-01T09:25:48.200Z,70.80
2023-04-01T09:28:22.291Z,73.74
2023-04-01T09:31:26.911Z,72.14
2023-04-01T09:34:32.863Z,72.22
2023-04-01T09:37:21.055Z,70.53
2023-04-01T09:40:11.206Z,70.34
2023-04-01T09:42:47.411Z,72.61
2023-04-01T09:45:46.103Z,73.27
2023-04-01T09:48:27.193Z,75.39
2023-04-01T09:51:06.642Z,75.51
2023-04-01T09:53:50.628Z,76.48
2023-04-01T09:57:00.162Z,77.29
2023-04-01T10:00:06.020Z,75.79
2023-04-01T10:03:34.012Z,76.12
2023-04-01T10:06:23.296Z,75.74
2023-04-01T10:09:23.753Z,76.17
2023-04-01T10:12:33.133Z,77.91
2023-04-01T10:15:52.064Z,80.52
2023-04-01T10:18:53.565Z,81.91
2023-04-01T10:22:09.028Z,81.97
2023-04-01T10:25:05.567Z,84.04
2023-04-01T10:27:56.238Z,85.48
2023-04-01T10:31:30.072Z,85.52
2023-04-01T10:34:44.927Z,87.25
2023-04-01T10:37:28.779Z,86.91
2023-04-01T10:40:33.291Z,86.87
2023-04-01T10:44:10.652Z,87.08
2023-04-01T10:47:24.002Z,87.92
2023-04-01T10:50:29.898Z,87.07
2023-04-01T10:53:42.092Z,88.07
2023-04-01T10:56:52.123Z,87.89
2023-04-01T11:00:03.152Z,90.04
2023-04-01T11:03:49.127Z,89.29
2023-04-01T11:07:02.742Z,89.41
2023-04-01T11:10:15.767Z,89.08
2023-04-01T11:13:20.067Z,89.71
2023-04-01T11:16:18.394Z,89.17
2023-04-01T11:19:18.456Z,89.35
2023-04-01T11:22:19.241Z,90.31
2023-04-01T11:25:11.443Z,87.67
2023-04-01T11:28:09.445Z,87.31
2023-04-01T11:30:51.152Z,89.05
2023-04-01T11:33:28.156Z,89.49
2023-04-01T11:36:27.350Z,89.16
2023-04-01T11:39:14.145Z,88.09
2023-04-01T11:42:12.193Z,88.25
2023-04-01T11:45:11.966Z,87.31
2023-04-01T11:48:11.038Z,88.31
2023-04-01T11:50:55.820Z,87.76
2023-04-01T11:53:35.580Z,87.85
2023-04-01T11:56:16.734Z,86.60
2023-04-01T11:59:01.140Z,85.61
2023-04-01T12:01:36.871Z,84.63
2023-04-01T12:04:38.009Z,85.31
2023-04-01T12:07:24.044Z,84.91
2023-04-01T12:10:01.373Z,86.30
2023-04-01T12:12:47.784Z,85.40
2023-04-01T12:15:31.992Z,86.35
2023-04-01T12:18:07.958Z,87.69
2023-04-01T12:20:45.464Z,87.19
2023-04-01T12:23:30.682Z,87.89
2023-04-01T12:26:21.771Z,89.36
2023-04-01T12:29:04.879Z,92.55
2023-04-01T12:31:45.346Z,91.59
2023-04-01T12:34:46.269Z,92.78
2023-04-01T12:37:22.577Z,92.57
2023-04-01T12:40:03.399Z,93.58
2023-04-01T12:42:49.870Z,93.40
2023-04-01T12:45:35.825Z,92.67
2023-04-01T12:48:25.621Z,92.28
2023-04-01T12:51:34.939Z,92.13
2023-04-01T12:54:28.445Z,91.32
2023-04-01T12:57:10.274Z,90.99
2023-04-01T13:00:00.037Z,92.47
2023-04-01T13:02:41.861Z,92.95
2023-04-01T13:05:22.805Z,91.06
2023-04-01T13:08:08.865Z,92.35
2023-04-01T13:10:55.117Z,89.07
2023-04-01T13:13:55.057Z,88.78
2023-04-01T13:16:26.496Z,92.14
2023-04-01T13:19:03.370Z,90.30
2023-04-01T13:21:41.372Z,89.35
2023-04-01T13:24:20.178Z,87.65
2023-04-01T13:26:58.661Z,87.90
2023-04-01T13:29:34.209Z,90.38
2023-04-01T13:32:17.595Z,90.33
2023-04-01T13:34:56.511Z,90.63
2023-04-01T13:37:36.672Z,91.17
2023-04-01T13:40:21.842Z,91.74
2023-04-01T13:42:53.738Z,90.67
2023-04-01T13:45:26.593Z,91.13
2023-04-01T13:48:30.552Z,91.05
2023-04-01T13:51:37.913Z,91.65
2023-04-01T13:54:34.933Z,91.77
2023-04-01T13:57:18.822Z,90.68
2023-04-01T14:00:09.655Z,89.85
2023-04-01T14:02:54.492Z,91.98
2023-04-01T14:05:43.095Z,92.81
2023-04-01T14:08:22.401Z,91.53
2023-04-01T14:10:59.059Z,92.20
2023-04-01T14:13:36.611Z,92.13
2023-04-01T14:16:30.984Z,91.08
2023-04-01T14:19:18.684Z,90.66
2023-04-01T14:21:58.043Z,91.94
2023-04-01T14:24:44.284Z,92.16
2023-04-01T14:27:29.251Z,91.41
2023-04-01T14:30:18.659Z,92.32
2023-04-01T14:32:54.510Z,90.71
2023-04-01T14:35:34.134Z,90.69
2023-04-01T14:38:44.804Z,91.99
2023-04-01T14:41:22.038Z,92.36
2023-04-01T14:44:11.225Z,92.04
2023-04-01T14:47:06.626Z,91.80
2023-04-01T14:49:37.322Z,90.96
2023-04-01T14:52:17.543Z,91.41
2023-04-01T14:54:46.738Z,90.90
2023-04-01T14:57:17.660Z,90.78
2023-04-01T14:59:51.413Z,90.60
2023-04-01T15:02:43.805Z,87.60
2023-04-01T15:05:18.392Z,87.33
2023-04-01T15:08:13.055Z,86.75
2023-04-01T15:11:13.888Z,86.59
2023-04-01T15:14:04.312Z,84.34
2023-04-01T15:16:41.991Z,84.90
2023-04-01T15:19:23.495Z,84.20
2023-04-01T15:22:21.559Z,83.67
2023-04-01T15:25:18.172Z,85.10
2023-04-01T15:27:53.808Z,85.12
2023-04-01T15:30:32.491Z,82.77
2023-04-01T15:33:18.025Z,82.97
2023-04-01T15:35:52.942Z,82.36
2023-04-01T15:38:33.335Z,81.35
2023-04-01T15:41:12.110Z,80.84
2023-04-01T15:43:44.369Z,80.26
2023-04-01T15:46:29.540Z,80.44
2023-04-01T15:49:06.910Z,81.53
2023-04-01T15:51:49.690Z,81.02
2023-04-01T15:54:28.389Z,80.85
2023-04-01T15:57:11.562Z,80.56
2023-04-01T15:59:55.817Z,81.15
2023-04-01T16:02:33.541Z,81.30
2023-04-01T16:05:05.200Z,82.13
2023-04-01T16:07:56.145Z,81.86
2023-04-01T16:10:46.268Z,81.98
2023-04-01T16:13:30.005Z,81.16
2023-04-01T16:16:09.400Z,81.35
2023-04-01T16:18:54.181Z,80.79
2023-04-01T16:21:36.522Z,80.43
2023-04-01T16:24:12.905Z,80.80
2023-04-01T16:26:46.157Z,80.84
2023-04-01T16:29:26.919Z,82.12
2023-04-01T16:32:01.440Z,82.23
2023-04-01T16:34:36.491Z,82.25
2023-04-01T16:37:09.104Z,81.11
2023-04-01T16:39:44.780Z,81.26
2023-04-01T16:42:22.599Z,80.30
2023-04-01T16:44:57.860Z,79.58
2023-04-01T16:47:32.428Z,79.46
2023-04-01T16:50:07.274Z,78.60
2023-04-01T16:52:50.599Z,78.31
2023-04-01T16:55:19.775Z,78.36
2023-04-01T16:57:52.389Z,78.37
2023-04-01T17:00:28.117Z,77.87
2023-04-01T17:03:06.400Z,77.15
2023-04-01T17:05:46.797Z,77.17
2023-04-01T17:08:24.819Z,77.80
2023-04-01T17:10:59.038Z,76.27
2023-04-01T17:13:36.166Z,77.22
2023-04-01T17:16:18.977Z,77.11
2023-04-01T17:18:54.795Z,77.43
2023-04-01T17:21:29.837Z,77.79
2023-04-01T17:24:09.607Z,78.18
2023-04-01T17:26:44.021Z,78.56
2023-04-01T17:29:21.697Z,78.66
2023-04-01T17:32:02.264Z,79.00
2023-04-01T17:34:41.444Z,79.54
2023-04-01T17:37:34.984Z,80.12
2023-04-01T17:40:18.300Z,80.23
2023-04-01T17:42:52.814Z,79.86
2023-04-01T17:45:26.060Z,79.75
2023-04-01T17:48:10.961Z,79.54
2023-04-01T17:50:51.644Z,79.72
2023-04-01T17:53:34.812Z,79.97
2023-04-01T17:56:14.113Z,79.73
2023-04-01T17:58:47.691Z,79.82
2023-04-01T18:01:26.774Z,78.83
2023-04-01T18:04:09.277Z,78.22
2023-04-01T18:06:43.345Z,79.22
2023-04-01T18:09:26.172Z,78.58
2023-04-01T18:12:04.001Z,78.74
2023-04-01T18:14:47.623Z,78.89
2023-04-01T18:17:25.810Z,78.82
2023-04-01T18:20:08.553Z,79.28
2023-04-01T18:22:43.033Z,79.09
2023-04-01T18:25:20.514Z,79.19
2023-04-01T18:27:51.217Z,79.98
2023-04-01T18:30:23.156Z,78.65
2023-04-01T18:32:54.903Z,78.51
2023-04-01T18:35:34.899Z,77.85
2023-04-01T18:38:08.172Z,78.14
2023-04-01T18:40:40.180Z,79.26
2023-04-01T18:43:18.584Z,79.23
2023-04-01T18:45:51.687Z,80.84
2023-04-01T18:48:39.676Z,79.85
2023-04-01T18:51:18.448Z,80.88
2023-04-01T18:53:50.726Z,81.01
2023-04-01T18:56:28.679Z,80.33
2023-04-01T18:59:03.983Z,79.87
2023-04-01T19:01:40.034Z,79.81
2023-04-01T19:04:18.969Z,80.81
2023-04-01T19:06:52.781Z,80.76
2023-04-01T19:09:26.176Z,80.62
2023-04-01T19:12:18.031Z,80.97
2023-04-01T19:15:06.558Z,80.50
2023-04-01T19:17:48.111Z,81.63
2023-04-01T19:20:23.320Z,81.84
2023-04-01T19:23:14.714Z,81.70
2023-04-01T19:25:48.915Z,81.94
2023-04-01T19:28:31.160Z,82.10
2023-04-01T19:31:02.033Z,81.92
2023-04-01T19:33:41.636Z,81.78
2023-04-01T19:36:17.174Z,82.54
2023-04-01T19:38:57.530Z,82.12
2023-04-01T19:41:38.679Z,81.73
2023-04-01T19:44:24.351Z,81.53
2023-04-01T19:46:57.952Z,81.34
2023-04-01T19:49:40.716Z,82.14
2023-04-01T19:52:18.133Z,82.41
2023-04-01T19:54:56.059Z,83.10
2023-04-01T19:57:32.232Z,83.33
2023-04-01T20:00:06.602Z,82.79
2023-04-01T20:03:05.551Z,83.17
2023-04-01T20:05:43.488Z,83.24
2023-04-01T20:08:19.061Z,83.70
2023-04-01T20:10:58.416Z,83.44
2023-04-01T20:13:35.674Z,82.98
2023-04-01T20:16:06.491Z,82.83
2023-04-01T20:18:41.698Z,83.83
2023-04-01T20:21:29.636Z,83.67
2023-04-01T20:24:01.208Z,82.91
2023-04-01T20:26:34.784Z,83.35
2023-04-01T20:29:25.348Z,83.13
2023-04-01T20:32:06.860Z,83.12
2023-04-01T20:34:57.877Z,82.91
2023-04-01T20:37:41.878Z,83.57
2023-04-01T20:40:32.326Z,83.21
2023-04-01T20:43:26.852Z,83.81
2023-04-01T20:46:00.016Z,83.80
2023-04-01T20:48:51.070Z,83.63
2023-04-01T20:51:24.667Z,82.88
2023-04-01T20:53:59.299Z,82.79
2023-04-01T20:56:45.623Z,83.29
2023-04-01T20:59:37.272Z,83.14
2023-04-01T21:02:17.567Z,83.55
2023-04-01T21:04:58.331Z,83.70
2023-04-01T21:07:35.366Z,83.66
2023-04-01T21:10:30.511Z,83.96
2023-04-01T21:13:08.406Z,84.09
2023-04-01T21:15:50.513Z,84.51
2023-04-01T21:18:32.340Z,84.12
2023-04-01T21:21:37.311Z,84.38
2023-04-01T21:24:35.467Z,84.06
2023-04-01T21:27:14.006Z,84.75
2023-04-01T21:29:56.215Z,84.63
2023-04-01T21:32:46.239Z,84.92
2023-04-01T21:35:28.046Z,84.27
2023-04-01T21:38:37.501Z,84.90
2023-04-01T21:41:19.926Z,84.57
2023-04-01T21:44:15.221Z,84.17
2023-04-01T21:47:11.300Z,83.80
2023-04-01T21:50:00.285Z,83.90
2023-04-01T21:52:56.241Z,84.30
2023-04-01T21:55:51.282Z,83.20
2023-04-01T21:58:36.937Z,82.64
2023-04-01T22:01:20.900Z,82.86
2023-04-01T22:04:12.723Z,83.57
2023-04-01T22:06:46.682Z,83.13
2023-04-01T22:09:20.737Z,83.17
2023-04-01T22:11:57.171Z,83.41
2023-04-01T22:14:32.545Z,83.10
2023-04-01T22:17:04.617Z,83.34
2023-04-01T22:19:43.579Z,83.27
2023-04-01T22:22:20.575Z,83.26
2023-04-01T22:25:01.956Z,83.38
2023-04-01T22:27:35.648Z,83.26
2023-04-01T22:30:12.297Z,83.47
2023-04-01T22:32:46.188Z,82.53
2023-04-01T22:35:24.498Z,82.81
2023-04-01T22:38:01.518Z,82.74
2023-04-01T22:40:37.588Z,83.40
2023-04-01T22:43:10.635Z,83.48
2023-04-01T22:46:17.649Z,82.64
2023-04-01T22:48:50.427Z,82.38
2023-04-01T22:51:21.377Z,82.67
2023-04-01T22:54:01.567Z,82.29
2023-04-01T22:56:34.712Z,82.73
2023-04-01T22:59:08.071Z,82.82
2023-04-01T23:01:44.037Z,83.02
2023-04-01T23:04:17.820Z,82.95
2023-04-01T23:06:49.807Z,83.66
2023-04-01T23:09:21.656Z,83.91
2023-04-01T23:11:53.717Z,83.30
2023-04-01T23:14:35.631Z,83.41
2023-04-01T23:17:14.387Z,82.98
2023-04-01T23:19:51.412Z,82.78
2023-04-01T23:22:27.865Z,83.31
2023-04-01T23:25:06.896Z,83.67
2023-04-01T23:27:40.918Z,83.33
2023-04-01T23:30:51.218Z,83.88
2023-04-01T23:33:25.341Z,83.60
2023-04-01T23:35:54.678Z,84.53
2023-04-01T23:38:24.712Z,83.91
2023-04-01T23:40:55.871Z,83.94
2023-04-01T23:43:28.084Z,84.05
2023-04-01T23:45:57.731Z,84.39
2023-04-01T23:48:31.239Z,84.70
2023-04-01T23:51:00.157Z,84.90
2023-04-01T23:53:31.427Z,84.40
2023-04-01T23:56:00.457Z,84.44
2023-04-01T23:58:40.624Z,83.79
